^^
Meteo Knjazevac Station Historical Data
Daily Summary for May 19, 2022 Units:  English    Metric   Both
Daily Weekly Monthly Yearly Custom
  High: Low: Average:
Temperature: 44.6 °F 36.5 °F 40.2 °F
Dew Point: 41.3 °F 34.1 °F 37.2 °F
Humidity: 95% 86% 89%
Wind Speed: 3mph 0mph 1.1mph
Wind Gust: 5mph - -
Wind- - West
Pressure: 30.40 in 30.35 in -
Precipitation: 0.00 in    
Historical Graphs
 
 
Tabular Data for May 19, 2022
Time Temperature Dew Point Pressure Wind Wind Speed Wind Gust Humidity Rainfall Rate (Hourly) solar Conditions
00:00 44.6 °F 41.3 °F 30.35 in Calm   2 mph 88% 0.00 in 0 W/m2
00:10 44.6 °F 40.7 °F 30.35 in NNW 1 mph 2 mph 86% 0.00 in 0 W/m2
00:20 44.1 °F 40.1 °F 30.35 in Calm   2 mph 86% 0.00 in 0 W/m2
00:30 43.7 °F 39.8 °F 30.35 in Calm   2 mph 86% 0.00 in 0 W/m2
00:40 43.2 °F 39.3 °F 30.35 in West 1 mph 2 mph 86% 0.00 in 0 W/m2
00:50 42.8 °F 38.9 °F 30.35 in Calm   2 mph 86% 0.00 in 0 W/m2
01:00 42.4 °F 38.5 °F 30.35 in WNW 1 mph 2 mph 86% 0.00 in 0 W/m2
01:10 42.1 °F 38.2 °F 30.35 in West 1 mph 2 mph 86% 0.00 in 0 W/m2
01:20 41.7 °F 38.4 °F 30.36 in West 1 mph 3 mph 88% 0.00 in 0 W/m2
01:30 41.5 °F 38.2 °F 30.36 in Calm   2 mph 88% 0.00 in 0 W/m2
01:40 41.2 °F 37.9 °F 30.36 in Calm   2 mph 88% 0.00 in 0 W/m2
03:50 40.8 °F 37.5 °F 30.36 in Calm   2 mph 88% 0.00 in 0 W/m2
04:00 40.3 °F 37 °F 30.36 in West 1 mph 3 mph 88% 0.00 in 0 W/m2
04:10 40.1 °F 36.8 °F 30.36 in West 1 mph 2 mph 88% 0.00 in 0 W/m2
04:20 39.7 °F 36.8 °F 30.37 in West 1 mph 3 mph 89% 0.00 in 0 W/m2
04:30 39.6 °F 36.6 °F 30.37 in WSW 2 mph 3 mph 89% 0.00 in 0 W/m2
04:40 39.4 °F 36.7 °F 30.37 in West 3 mph 4 mph 90% 0.00 in 0 W/m2
04:50 39.4 °F 37 °F 30.37 in West 2 mph 5 mph 91% 0.00 in 0 W/m2
05:00 39.4 °F 36.7 °F 30.37 in West 1 mph 4 mph 90% 0.00 in 0 W/m2
05:10 39.2 °F 36.5 °F 30.37 in Calm   3 mph 90% 0.00 in 0 W/m2
05:20 38 °F 35.5 °F 30.39 in WNW 1.4 mph 5 mph 90.3% 0.00 in 7 W/m2
05:30 37 °F 34.7 °F 30.39 in WNW 2 mph 4 mph 91% 0.00 in 19 W/m2
05:40 36.9 °F 34.5 °F 30.39 in West 1 mph 3 mph 91% 0.00 in 28 W/m2
05:50 36.7 °F 34.3 °F 30.39 in West 3 mph 5 mph 91% 0.00 in 45 W/m2
06:00 36.5 °F 34.1 °F 30.40 in West 2 mph 5 mph 91% 0.00 in 71 W/m2
06:10 36.7 °F 34.8 °F 30.40 in West 1 mph 5 mph 93% 0.00 in 92 W/m2
06:20 37.1 °F 35.5 °F 30.40 in WNW 2 mph 3 mph 94% 0.00 in 115 W/m2
06:30 37.8 °F 36.5 °F 30.40 in WNW 2 mph 4 mph 95% 0.00 in 141 W/m2
Knjazevac, Serbia
Compliments of Weather Underground - 2 mb